Time;durP1;ratioP1;P1;durP2;ratioP2;P2;SDS_P1;SDS_P2;PMS_P1;PMS_P2;Temp;Humidity;BMP_temperature;BMP_pressure;BME280_temperature;BME280_humidity;BME280_pressure;Samples;Min_cycle;Max_cycle;Signal;HPM_P1;HPM_P2
2023/12/16 00:01:34;;;;;;;0.10;0.10;;;;;;;;;;4924867;29;20032;-90
2023/12/16 00:04:00;;;;;;;0.10;0.10;;;;;;;;;;4924483;29;20060;-91
2023/12/16 00:06:26;;;;;;;0.10;0.10;;;;;;;;;;4923724;29;20055;-91
2023/12/16 00:08:52;;;;;;;0.10;0.10;;;;;;;;;;4924565;29;20035;-90
2023/12/16 00:11:18;;;;;;;0.00;0.00;;;;;;;;;;4924238;29;20091;-91
2023/12/16 00:13:44;;;;;;;0.10;0.10;;;;;;;;;;4924357;29;20032;-91
2023/12/16 00:16:10;;;;;;;0.00;0.00;;;;;;;;;;4923347;29;20036;-90
2023/12/16 00:18:37;;;;;;;0.10;0.10;;;7.50;99.90;;;;;;4923484;29;20040;-91
2023/12/16 00:21:03;;;;;;;0.10;0.10;;;;;;;;;;4917489;29;20089;-90
2023/12/16 00:23:30;;;;;;;0.10;0.10;;;;;;;;;;4926135;29;20024;-91
2023/12/16 00:25:55;;;;;;;0.10;0.10;;;;;;;;;;4925767;29;20032;-92
2023/12/16 00:28:21;;;;;;;0.00;0.00;;;;;;;;;;4919869;29;20036;-90
2023/12/16 00:30:47;;;;;;;0.00;0.00;;;;;;;;;;4926021;29;20103;-91
2023/12/16 00:33:13;;;;;;;0.00;0.00;;;;;;;;;;4925755;29;20028;-91
2023/12/16 00:35:39;;;;;;;0.10;0.10;;;;;;;;;;4924657;29;20060;-91
2023/12/16 00:38:05;;;;;;;0.00;0.00;;;;;;;;;;4925906;29;20511;-91
2023/12/16 00:40:31;;;;;;;0.00;0.00;;;;;;;;;;4924333;29;20052;-91
2023/12/16 00:42:57;;;;;;;0.10;0.10;;;;;;;;;;4925025;29;20056;-91
2023/12/16 00:45:23;;;;;;;0.00;0.00;;;;;;;;;;4925474;29;20028;-90
2023/12/16 00:47:49;;;;;;;0.00;0.00;;;;;;;;;;4924824;29;20035;-90
2023/12/16 00:50:15;;;;;;;0.10;0.10;;;7.50;99.90;;;;;;4924790;29;20511;-90
2023/12/16 00:52:42;;;;;;;0.00;0.00;;;;;;;;;;4924634;29;20040;-90
2023/12/16 00:55:08;;;;;;;0.00;0.00;;;7.50;99.90;;;;;;4923645;29;20031;-90
2023/12/16 00:57:33;;;;;;;0.08;0.08;;;7.60;99.90;;;;;;4920625;29;20036;-91
2023/12/16 00:59:59;;;;;;;0.05;0.05;;;;;;;;;;4918610;29;20579;-89
2023/12/16 01:02:25;;;;;;;0.10;0.10;;;;;;;;;;4919223;29;20028;-90
2023/12/16 01:04:52;;;;;;;0.10;0.10;;;;;;;;;;4919289;29;20059;-90
2023/12/16 01:07:18;;;;;;;0.10;0.10;;;;;;;;;;4936747;29;20129;-91
2023/12/16 01:09:44;;;;;;;0.10;0.10;;;;;;;;;;4916834;29;20067;-90
2023/12/16 01:12:10;;;;;;;0.10;0.10;;;;;;;;;;4919892;29;20927;-91
2023/12/16 01:14:36;;;;;;;0.10;0.10;;;;;;;;;;4917968;29;20095;-90
2023/12/16 01:17:02;;;;;;;0.10;0.10;;;;;;;;;;4924066;29;20036;-90
2023/12/16 01:19:28;;;;;;;0.00;0.00;;;;;;;;;;4920151;29;20071;-90
2023/12/16 01:21:54;;;;;;;0.10;0.10;;;;;;;;;;4927886;29;20028;-90
2023/12/16 01:24:21;;;;;;;0.10;0.10;;;;;;;;;;4929806;29;20036;-91
2023/12/16 01:26:47;;;;;;;0.10;0.10;;;;;;;;;;4927960;29;20037;-90
2023/12/16 01:29:12;;;;;;;0.00;0.00;;;;;;;;;;4931961;29;20031;-90
2023/12/16 01:31:38;;;;;;;0.00;0.00;;;;;;;;;;4926491;29;20040;-91
2023/12/16 01:34:04;;;;;;;0.10;0.10;;;;;;;;;;4945768;28;20025;-90
2023/12/16 01:36:30;;;;;;;0.10;0.10;;;;;;;;;;4927937;29;20031;-90
2023/12/16 01:38:56;;;;;;;0.10;0.10;;;;;;;;;;4928948;29;20134;-91
2023/12/16 01:41:22;;;;;;;0.10;0.10;;;;;;;;;;4940261;29;20034;-90
2023/12/16 01:43:48;;;;;;;0.10;0.10;;;;;;;;;;4927341;29;20034;-90
2023/12/16 01:46:14;;;;;;;0.00;0.00;;;;;;;;;;4922613;29;20112;-90
2023/12/16 01:48:41;;;;;;;0.00;0.00;;;;;;;;;;4918758;29;20959;-91
2023/12/16 01:51:08;;;;;;;0.10;0.10;;;;;;;;;;4931736;29;20055;-90
2023/12/16 01:53:35;;;;;;;0.00;0.00;;;7.60;99.90;;;;;;4929300;29;20404;-89
2023/12/16 01:56:01;;;;;;;0.10;0.10;;;;;;;;;;4928315;29;20111;-90
2023/12/16 01:58:27;;;;;;;0.00;0.00;;;;;;;;;;4923485;29;20032;-91
2023/12/16 02:00:53;;;;;;;0.10;0.10;;;;;;;;;;4925974;29;20150;-91
2023/12/16 02:03:20;;;;;;;0.10;0.10;;;7.50;99.90;;;;;;4925504;29;20059;-90
2023/12/16 02:05:46;;;;;;;0.00;0.00;;;;;;;;;;4928720;29;20039;-91
2023/12/16 02:08:11;;;;;;;0.03;0.03;;;;;;;;;;4925923;29;20051;-92
2023/12/16 02:10:38;;;;;;;0.00;0.00;;;;;;;;;;4937539;29;20400;-90
2023/12/16 02:13:04;;;;;;;0.00;0.00;;;7.60;99.90;;;;;;4928384;29;20043;-90
2023/12/16 02:15:30;;;;;;;0.10;0.10;;;;;;;;;;4925340;29;20029;-90
2023/12/16 02:17:56;;;;;;;0.05;0.05;;;;;;;;;;4925512;29;20039;-91
2023/12/16 02:20:22;;;;;;;0.00;0.00;;;;;;;;;;4930037;29;20503;-89
2023/12/16 02:22:48;;;;;;;0.10;0.10;;;7.50;99.90;;;;;;4927385;29;20024;-91
2023/12/16 02:25:15;;;;;;;0.10;0.10;;;7.60;99.90;;;;;;4929591;29;20028;-92
2023/12/16 02:27:41;;;;;;;0.10;0.10;;;;;;;;;;4931279;29;20448;-91
2023/12/16 02:30:08;;;;;;;0.10;0.10;;;7.60;99.90;;;;;;4927512;29;20062;-91
2023/12/16 02:32:34;;;;;;;0.10;0.10;;;;;;;;;;4933091;29;20459;-91
2023/12/16 02:35:00;;;;;;;0.10;0.10;;;;;;;;;;4927419;29;20032;-91
2023/12/16 02:37:26;;;;;;;0.05;0.05;;;;;;;;;;4926345;29;20036;-91
2023/12/16 02:39:52;;;;;;;0.10;0.10;;;;;;;;;;4927471;29;20464;-90
2023/12/16 02:42:18;;;;;;;0.10;0.10;;;7.60;99.90;;;;;;4929456;29;20063;-89
2023/12/16 02:44:44;;;;;;;0.00;0.00;;;;;;;;;;4927177;29;20044;-90
2023/12/16 02:47:10;;;;;;;0.00;0.00;;;;;;;;;;4928229;29;20048;-91
2023/12/16 02:49:36;;;;;;;0.10;0.10;;;;;;;;;;4932327;29;20043;-91
2023/12/16 02:52:01;;;;;;;0.10;0.10;;;;;;;;;;4926895;29;20399;-91
2023/12/16 02:54:28;;;;;;;0.08;0.08;;;7.60;99.90;;;;;;4930972;29;20491;-90
2023/12/16 02:56:54;;;;;;;0.00;0.00;;;;;;;;;;4925453;29;20032;-90
2023/12/16 02:59:20;;;;;;;0.00;0.00;;;;;;;;;;4930056;29;20028;-90
2023/12/16 03:01:46;;;;;;;0.00;0.00;;;;;;;;;;4929250;29;20036;-92
2023/12/16 03:04:12;;;;;;;0.10;0.10;;;;;;;;;;4934376;29;20064;-91
2023/12/16 03:06:44;;;;;;;0.10;0.10;;;7.60;99.90;;;;;;4926499;29;20523;-89
2023/12/16 03:09:10;;;;;;;0.10;0.10;;;;;;;;;;4932164;29;20515;-92
2023/12/16 03:11:36;;;;;;;0.10;0.10;;;;;;;;;;4930576;29;20044;-90
2023/12/16 03:14:02;;;;;;;0.08;0.08;;;;;;;;;;4935956;29;20100;-91
2023/12/16 03:16:28;;;;;;;0.10;0.10;;;;;;;;;;4931247;29;20043;-91
2023/12/16 03:18:54;;;;;;;0.00;0.00;;;;;;;;;;4930106;29;20122;-91
2023/12/16 03:21:20;;;;;;;0.00;0.00;;;;;;;;;;4933142;29;20055;-90
2023/12/16 03:23:46;;;;;;;0.10;0.10;;;;;;;;;;4927760;29;20495;-90
2023/12/16 03:26:12;;;;;;;0.05;0.05;;;;;;;;;;4929269;29;20024;-91
2023/12/16 03:28:38;;;;;;;0.00;0.00;;;;;;;;;;4927232;29;20060;-91
2023/12/16 03:31:04;;;;;;;0.00;0.00;;;;;;;;;;4947461;29;20064;-90
2023/12/16 03:33:30;;;;;;;0.00;0.00;;;;;;;;;;4936657;29;20087;-91
2023/12/16 03:35:56;;;;;;;0.00;0.00;;;;;;;;;;4929316;29;20036;-89
2023/12/16 03:38:22;;;;;;;0.10;0.10;;;;;;;;;;4928553;29;20043;-91
2023/12/16 03:40:48;;;;;;;0.00;0.00;;;;;;;;;;4926057;29;20033;-90
2023/12/16 03:43:15;;;;;;;0.10;0.10;;;7.60;99.90;;;;;;4928404;29;20494;-90
2023/12/16 03:45:41;;;;;;;0.00;0.00;;;;;;;;;;4928471;29;20100;-91
2023/12/16 03:48:07;;;;;;;0.00;0.00;;;;;;;;;;4943657;29;20040;-90
2023/12/16 03:50:33;;;;;;;0.10;0.10;;;;;;;;;;4928886;29;20425;-89
2023/12/16 03:52:59;;;;;;;0.00;0.00;;;;;;;;;;4930373;29;20038;-90
2023/12/16 03:55:24;;;;;;;0.00;0.00;;;;;;;;;;4931289;29;20047;-90
2023/12/16 03:57:50;;;;;;;0.08;0.08;;;;;;;;;;4928134;29;20151;-90
2023/12/16 04:00:16;;;;;;;0.00;0.00;;;;;;;;;;4928900;29;20121;-90
2023/12/16 04:02:42;;;;;;;0.00;0.00;;;;;;;;;;4930554;29;20033;-90
2023/12/16 04:05:08;;;;;;;0.10;0.10;;;;;;;;;;4929640;29;20036;-89
2023/12/16 04:07:34;;;;;;;0.10;0.10;;;;;;;;;;4930180;29;20035;-91
2023/12/16 04:10:00;;;;;;;0.10;0.10;;;7.60;99.90;;;;;;4927731;29;20067;-89
2023/12/16 04:12:26;;;;;;;0.10;0.10;;;;;;;;;;4933829;29;20474;-91
2023/12/16 04:14:52;;;;;;;0.00;0.00;;;;;;;;;;4930795;29;20036;-91
2023/12/16 04:17:18;;;;;;;0.10;0.10;;;;;;;;;;4925868;29;20453;-90
2023/12/16 04:19:51;;;;;;;0.10;0.10;;;7.60;99.90;;;;;;4929341;29;20038;-88
2023/12/16 04:22:17;;;;;;;0.08;0.08;;;;;;;;;;4929325;29;20091;-90
2023/12/16 04:24:43;;;;;;;0.10;0.10;;;;;;;;;;4926733;29;20039;-91
2023/12/16 04:27:09;;;;;;;0.10;0.10;;;;;;;;;;4929445;29;20040;-91
2023/12/16 04:29:34;;;;;;;0.05;0.05;;;7.70;99.90;;;;;;4930483;29;20427;-90
2023/12/16 04:32:00;;;;;;;0.10;0.10;;;;;;;;;;4927396;29;20042;-91
2023/12/16 04:34:26;;;;;;;0.10;0.10;;;;;;;;;;4928205;29;20067;-89
2023/12/16 04:36:52;;;;;;;0.10;0.10;;;;;;;;;;4929334;29;20127;-91
2023/12/16 04:39:18;;;;;;;0.10;0.10;;;;;;;;;;4927766;29;20028;-90
2023/12/16 04:41:44;;;;;;;0.10;0.10;;;;;;;;;;4926262;29;20065;-91
2023/12/16 04:44:10;;;;;;;0.10;0.10;;;;;;;;;;4927109;29;20080;-90
2023/12/16 04:46:36;;;;;;;0.10;0.10;;;;;;;;;;4925754;29;20087;-89
2023/12/16 04:49:02;;;;;;;0.10;0.10;;;;;;;;;;4926891;29;20036;-89
2023/12/16 04:51:28;;;;;;;0.10;0.10;;;;;;;;;;4924812;29;20092;-92
2023/12/16 04:53:56;;;;;;;0.00;0.00;;;;;;;;;;4926920;29;20032;-91
2023/12/16 04:56:22;;;;;;;0.10;0.10;;;;;;;;;;4927619;29;20039;-90
2023/12/16 04:58:47;;;;;;;0.10;0.10;;;;;;;;;;4925104;29;20032;-88
2023/12/16 05:01:13;;;;;;;0.10;0.10;;;7.70;99.90;;;;;;4924326;29;20028;-89
2023/12/16 05:03:41;;;;;;;0.00;0.00;;;7.60;99.90;;;;;;4927051;29;20050;-90
2023/12/16 05:06:07;;;;;;;0.00;0.00;;;;;;;;;;4921452;29;20041;-90
2023/12/16 05:08:33;;;;;;;0.00;0.00;;;;;;;;;;4925263;29;20067;-90
2023/12/16 05:10:59;;;;;;;0.10;0.10;;;;;;;;;;4927471;29;20043;-90
2023/12/16 05:13:25;;;;;;;0.00;0.00;;;;;;;;;;4929382;29;20047;-90
2023/12/16 05:15:53;;;;;;;0.00;0.00;;;;;;;;;;4925731;29;20033;-90
2023/12/16 05:18:19;;;;;;;0.00;0.00;;;;;;;;;;4924436;29;20091;-90
2023/12/16 05:20:45;;;;;;;0.00;0.00;;;;;;;;;;4929304;29;20029;-89
2023/12/16 05:23:11;;;;;;;0.00;0.00;;;;;;;;;;4925285;29;20028;-90
2023/12/16 05:25:39;;;;;;;0.10;0.10;;;;;;;;;;4925048;29;20304;-89
2023/12/16 05:28:05;;;;;;;0.00;0.00;;;;;;;;;;4924709;29;20099;-90
2023/12/16 05:30:31;;;;;;;0.10;0.10;;;;;;;;;;4927495;29;20123;-89
2023/12/16 05:32:57;;;;;;;0.00;0.00;;;;;;;;;;4929790;29;20032;-91
2023/12/16 05:35:23;;;;;;;0.10;0.10;;;;;;;;;;4939764;29;20032;-88
2023/12/16 05:37:49;;;;;;;0.10;0.10;;;;;;;;;;4926005;29;20028;-90
2023/12/16 05:40:15;;;;;;;0.00;0.00;;;;;;;;;;4926861;29;20032;-90
2023/12/16 05:42:41;;;;;;;0.00;0.00;;;;;;;;;;4926416;29;20042;-89
2023/12/16 05:45:07;;;;;;;0.10;0.10;;;;;;;;;;4925777;29;20028;-90
2023/12/16 05:47:33;;;;;;;0.10;0.10;;;;;;;;;;4927745;29;20032;-90
2023/12/16 05:49:59;;;;;;;0.00;0.00;;;;;;;;;;4929481;29;20032;-91
2023/12/16 05:52:25;;;;;;;0.10;0.10;;;;;;;;;;4926198;29;20083;-91
2023/12/16 05:54:52;;;;;;;0.10;0.10;;;;;;;;;;4924327;29;20046;-91
2023/12/16 05:57:18;;;;;;;0.08;0.08;;;;;;;;;;4926225;29;20707;-90
2023/12/16 05:59:44;;;;;;;0.10;0.10;;;;;;;;;;4922788;29;20325;-90
2023/12/16 06:02:10;;;;;;;0.10;0.10;;;;;;;;;;4928787;29;20024;-91
2023/12/16 06:04:36;;;;;;;0.00;0.00;;;;;;;;;;4926400;29;20088;-90
2023/12/16 06:07:02;;;;;;;0.10;0.10;;;;;;;;;;4929335;29;20032;-91
2023/12/16 06:09:28;;;;;;;0.10;0.10;;;;;;;;;;4926098;29;20024;-91
2023/12/16 06:11:55;;;;;;;0.10;0.10;;;;;;;;;;4926007;29;20035;-92
2023/12/16 06:14:21;;;;;;;0.00;0.00;;;;;;;;;;4929101;29;20039;-91
2023/12/16 06:16:47;;;;;;;0.03;0.03;;;;;;;;;;4927717;29;20030;-91
2023/12/16 06:19:13;;;;;;;0.10;0.10;;;;;;;;;;4928060;29;20028;-90
2023/12/16 06:21:39;;;;;;;0.10;0.10;;;;;;;;;;4928669;29;20020;-90
2023/12/16 06:24:06;;;;;;;0.10;0.10;;;6.90;99.90;;;;;;4925588;29;20024;-90
2023/12/16 06:26:32;;;;;;;0.10;0.10;;;;;;;;;;4926011;29;20024;-90
2023/12/16 06:28:58;;;;;;;0.00;0.00;;;;;;;;;;4928166;29;20043;-89
2023/12/16 06:31:24;;;;;;;0.10;0.10;;;;;;;;;;4925886;29;20079;-91
2023/12/16 06:33:50;;;;;;;0.10;0.10;;;;;;;;;;4928080;29;20032;-91
2023/12/16 06:36:16;;;;;;;0.10;0.10;;;;;;;;;;4929079;29;20036;-91
2023/12/16 06:38:42;;;;;;;0.10;0.10;;;;;;;;;;4927170;29;20097;-91
2023/12/16 06:41:08;;;;;;;0.08;0.08;;;;;;;;;;4925210;29;20044;-91
2023/12/16 06:43:34;;;;;;;0.10;0.10;;;;;;;;;;4926662;29;20030;-90
2023/12/16 06:46:00;;;;;;;0.10;0.10;;;;;;;;;;4922787;29;20178;-89
2023/12/16 06:48:26;;;;;;;0.10;0.10;;;;;;;;;;4925885;29;20104;-90
2023/12/16 06:50:57;;;;;;;0.00;0.00;;;;;;;;;;4926477;29;20035;-89
2023/12/16 06:53:23;;;;;;;0.10;0.10;;;;;;;;;;4924111;29;20028;-90
2023/12/16 06:55:49;;;;;;;0.10;0.10;;;;;;;;;;4928523;29;20043;-90
2023/12/16 06:58:14;;;;;;;0.00;0.00;;;;;;;;;;4929885;29;20039;-90
2023/12/16 07:00:40;;;;;;;0.10;0.10;;;;;;;;;;4925343;29;20118;-90
2023/12/16 07:03:07;;;;;;;0.10;0.10;;;;;;;;;;4928862;29;20032;-90
2023/12/16 07:05:34;;;;;;;0.10;0.10;;;;;;;;;;4928956;29;20040;-92
2023/12/16 07:08:00;;;;;;;0.10;0.10;;;;;;;;;;4928190;29;20035;-90
2023/12/16 07:10:26;;;;;;;0.10;0.10;;;;;;;;;;4925085;29;20040;-90
2023/12/16 07:12:52;;;;;;;0.10;0.10;;;;;;;;;;4927125;29;20035;-90
2023/12/16 07:15:19;;;;;;;0.10;0.10;;;6.90;99.90;;;;;;4927549;29;20074;-91
2023/12/16 07:17:45;;;;;;;0.05;0.05;;;;;;;;;;4926543;29;20032;-90
2023/12/16 07:20:12;;;;;;;0.10;0.10;;;;;;;;;;4927843;29;20092;-90
2023/12/16 07:22:38;;;;;;;0.05;0.05;;;;;;;;;;4924943;29;20032;-89
2023/12/16 07:25:04;;;;;;;0.10;0.10;;;;;;;;;;4926893;29;20020;-90
2023/12/16 07:27:30;;;;;;;0.00;0.00;;;;;;;;;;4924158;29;20036;-90
2023/12/16 07:29:56;;;;;;;0.10;0.10;;;;;;;;;;4929502;29;20036;-90
2023/12/16 07:32:25;;;;;;;0.10;0.10;;;;;;;;;;4925316;29;20491;-90
2023/12/16 07:34:51;;;;;;;0.10;0.10;;;;;;;;;;4923344;29;20028;-91
2023/12/16 07:37:18;;;;;;;0.10;0.10;;;;;;;;;;4926407;29;20096;-90
2023/12/16 07:39:44;;;;;;;0.10;0.10;;;;;;;;;;4919058;29;20020;-88
2023/12/16 07:42:11;;;;;;;0.10;0.10;;;6.80;99.90;;;;;;4937450;29;20048;-90
2023/12/16 07:44:37;;;;;;;0.10;0.10;;;;;;;;;;4923373;29;20099;-90
2023/12/16 07:47:03;;;;;;;0.10;0.10;;;;;;;;;;4923998;29;20060;-88
2023/12/16 07:49:29;;;;;;;0.10;0.10;;;;;;;;;;4926704;29;20033;-90
2023/12/16 07:51:55;;;;;;;0.10;0.10;;;6.90;99.90;;;;;;4925921;29;20111;-90
2023/12/16 07:54:24;;;;;;;0.10;0.10;;;7.00;99.90;;;;;;4929263;29;20059;-91
2023/12/16 07:56:50;;;;;;;0.10;0.10;;;;;;;;;;4928480;29;20028;-90
2023/12/16 07:59:17;;;;;;;0.10;0.10;;;;;;;;;;4928672;29;20040;-90
2023/12/16 08:01:52;;;;;;;0.08;0.08;;;7.10;99.90;;;;;;4938769;29;20036;-91
2023/12/16 08:04:18;;;;;;;0.00;0.00;;;;;;;;;;4930891;29;20052;-88
2023/12/16 08:06:44;;;;;;;0.10;0.10;;;;;;;;;;4930164;29;20032;-90
2023/12/16 08:09:10;;;;;;;0.10;0.10;;;;;;;;;;4928897;29;20028;-91
2023/12/16 08:11:36;;;;;;;0.10;0.10;;;;;;;;;;4927667;29;20495;-88
2023/12/16 08:14:02;;;;;;;0.10;0.10;;;;;;;;;;4923427;29;20035;-89
2023/12/16 08:16:28;;;;;;;0.00;0.00;;;;;;;;;;4927196;29;20053;-88
2023/12/16 08:18:54;;;;;;;0.10;0.10;;;7.30;99.90;;;;;;4923584;29;20044;-91
2023/12/16 08:21:20;;;;;;;0.10;0.10;;;;;;;;;;4924445;29;20043;-89
2023/12/16 08:23:46;;;;;;;0.08;0.08;;;;;;;;;;4927643;29;20038;-89
2023/12/16 08:26:12;;;;;;;0.10;0.10;;;;;;;;;;4925977;29;20052;-90
2023/12/16 08:28:40;;;;;;;0.10;0.10;;;;;;;;;;4924794;29;20036;-89
2023/12/16 08:31:06;;;;;;;0.10;0.10;;;;;;;;;;4926523;29;20075;-90
2023/12/16 08:33:32;;;;;;;0.05;0.05;;;;;;;;;;4941439;28;20555;-91
2023/12/16 08:35:58;;;;;;;0.10;0.10;;;7.50;99.90;;;;;;4924126;29;20051;-90
2023/12/16 08:38:23;;;;;;;0.00;0.00;;;;;;;;;;4926817;29;20084;-91
2023/12/16 08:40:53;;;;;;;0.10;0.10;;;7.60;99.90;;;;;;4925440;29;20027;-90
2023/12/16 08:43:19;;;;;;;0.10;0.10;;;;;;;;;;4929132;29;20035;-91
2023/12/16 08:45:45;;;;;;;0.00;0.00;;;;;;;;;;4928525;29;20327;-90
2023/12/16 08:48:11;;;;;;;0.10;0.10;;;;;;;;;;4926942;29;20056;-92
2023/12/16 08:50:36;;;;;;;0.10;0.10;;;;;;;;;;4927206;29;20043;-91
2023/12/16 08:53:03;;;;;;;0.10;0.10;;;;;;;;;;4925307;29;20403;-90
2023/12/16 08:55:29;;;;;;;0.10;0.10;;;;;;;;;;4926806;29;20055;-90
2023/12/16 08:57:57;;;;;;;0.10;0.10;;;;;;;;;;4922411;29;20452;-90
2023/12/16 09:00:30;;;;;;;0.10;0.10;;;;;;;;;;4928234;29;20055;-88
2023/12/16 09:03:01;;;;;;;0.10;0.10;;;8.20;99.90;;;;;;4927962;29;20725;-89
2023/12/16 09:05:28;;;;;;;0.00;0.00;;;;;;;;;;4934196;29;20561;-89
2023/12/16 09:07:54;;;;;;;0.00;0.00;;;;;;;;;;4946634;29;20020;-88
2023/12/16 09:10:20;;;;;;;0.00;0.00;;;;;;;;;;4935832;29;20031;-88
2023/12/16 09:12:47;;;;;;;0.00;0.00;;;;;;;;;;4935859;29;20095;-88
2023/12/16 09:15:13;;;;;;;0.10;0.10;;;;;;;;;;4930388;29;20024;-88
2023/12/16 09:17:39;;;;;;;0.00;0.00;;;;;;;;;;4931886;29;20046;-89
2023/12/16 09:20:05;;;;;;;0.00;0.00;;;8.50;99.90;;;;;;4931719;29;20052;-88
2023/12/16 09:22:31;;;;;;;0.05;0.05;;;;;;;;;;4935725;29;20035;-89
2023/12/16 09:24:57;;;;;;;0.10;0.10;;;;;;;;;;4934509;29;20029;-88
2023/12/16 09:27:23;;;;;;;0.10;0.10;;;;;;;;;;4947993;29;20036;-87
2023/12/16 09:29:49;;;;;;;0.08;0.08;;;9.80;99.90;;;;;;4926775;29;20047;-87
2023/12/16 09:32:15;;;;;;;0.10;0.10;;;;;;;;;;4927699;29;20036;-88
2023/12/16 09:34:42;;;;;;;0.10;0.10;;;9.10;99.90;;;;;;4930942;29;20032;-89
2023/12/16 09:37:08;;;;;;;0.10;0.10;;;;;;;;;;4926465;29;20032;-88
2023/12/16 09:39:34;;;;;;;0.00;0.00;;;;;;;;;;4927730;29;20028;-84
2023/12/16 09:42:02;;;;;;;0.00;0.00;;;9.20;99.90;;;;;;4927685;29;20024;-85
2023/12/16 09:44:28;;;;;;;0.00;0.00;;;;;;;;;;4944045;29;20008;-87
2023/12/16 09:46:59;;;;;;;0.00;0.00;;;;;;;;;;4927975;29;20012;-88
2023/12/16 09:49:26;;;;;;;0.00;0.00;;;9.30;99.90;;;;;;4942902;29;20050;-89
2023/12/16 09:51:52;;;;;;;0.00;0.00;;;;;;;;;;4932148;29;20036;-88
2023/12/16 09:54:18;;;;;;;0.00;0.00;;;;;;;;;;4930055;29;20040;-86
2023/12/16 09:56:48;;;;;;;0.00;0.00;;;9.40;99.90;;;;;;4926426;29;20048;-87
2023/12/16 09:59:16;;;;;;;0.00;0.00;;;9.40;99.90;;;;;;4929617;29;20032;-89
2023/12/16 10:01:52;;;;;;;0.00;0.00;;;9.40;99.90;;;;;;4932663;29;20023;-89
2023/12/16 10:04:23;;;;;;;0.00;0.00;;;9.40;99.90;;;;;;4927808;29;20036;-88
2023/12/16 15:53:46;;;;;;;0.10;0.10;;;;;;;;;;4932058;29;20052;-91
2023/12/16 15:56:12;;;;;;;0.00;0.00;;;;;;;;;;4930887;29;20091;-93
2023/12/16 15:58:38;;;;;;;0.00;0.00;;;;;;;;;;4928437;29;20020;-93
2023/12/16 16:01:04;;;;;;;0.10;0.10;;;;;;;;;;4929573;29;20096;-93
2023/12/16 16:03:30;;;;;;;0.08;0.08;;;;;;;;;;4930672;29;20039;-93
2023/12/16 16:05:57;;;;;;;0.00;0.00;;;;;;;;;;4930524;29;20527;-94
2023/12/16 16:08:23;;;;;;;0.00;0.00;;;;;;;;;;4927885;29;20028;-93
2023/12/16 16:10:49;;;;;;;0.10;0.10;;;;;;;;;;4943210;29;20024;-94
2023/12/16 16:13:15;;;;;;;0.10;0.10;;;;;;;;;;4924361;29;20107;-93
2023/12/16 16:15:41;;;;;;;0.00;0.00;;;;;;;;;;4929609;29;20032;-93
2023/12/16 16:18:07;;;;;;;0.10;0.10;;;;;;;;;;4935817;29;20024;-93
2023/12/16 16:23:54;;;;;;;0.10;0.10;;;;;;;;;;4918638;29;20032;-93
2023/12/16 16:26:21;;;;;;;0.00;0.00;;;;;;;;;;4931834;29;20483;-94
2023/12/16 16:28:47;;;;;;;0.10;0.10;;;;;;;;;;4937450;29;20032;-93
2023/12/16 16:31:14;;;;;;;0.00;0.00;;;;;;;;;;4937455;29;20028;-94
2023/12/16 16:33:40;;;;;;;0.10;0.10;;;;;;;;;;4929923;29;20048;-93
2023/12/16 16:36:06;;;;;;;0.00;0.00;;;;;;;;;;4928237;29;20107;-93
2023/12/16 16:38:32;;;;;;;0.10;0.10;;;;;;;;;;4926999;29;20063;-93
2023/12/16 16:40:58;;;;;;;0.00;0.00;;;;;;;;;;4926827;29;20083;-92
2023/12/16 16:43:24;;;;;;;0.00;0.00;;;;;;;;;;4931427;29;20032;-92
2023/12/16 16:45:50;;;;;;;0.00;0.00;;;;;;;;;;4920208;29;20099;-93
2023/12/16 16:48:16;;;;;;;0.10;0.10;;;;;;;;;;4945112;29;20039;-93
2023/12/16 16:50:47;;;;;;;0.03;0.03;;;;;;;;;;4928409;29;20084;-94
2023/12/16 16:53:14;;;;;;;0.10;0.10;;;;;;;;;;4942657;29;20484;-92
2023/12/16 16:55:40;;;;;;;0.03;0.03;;;;;;;;;;4909846;29;20100;-93
2023/12/16 16:58:06;;;;;;;0.00;0.00;;;;;;;;;;4924936;29;20127;-92
2023/12/16 17:00:33;;;;;;;0.00;0.00;;;;;;;;;;4929221;29;20020;-93
2023/12/16 17:02:59;;;;;;;0.10;0.10;;;;;;;;;;4926052;29;20088;-92
2023/12/16 17:05:25;;;;;;;0.03;0.03;;;;;;;;;;4924079;29;20059;-93
2023/12/16 17:07:51;;;;;;;0.00;0.00;;;;;;;;;;4924112;29;20085;-93
2023/12/16 17:10:19;;;;;;;0.05;0.05;;;;;;;;;;4922670;29;20024;-93
2023/12/16 17:12:45;;;;;;;0.00;0.00;;;;;;;;;;4922891;29;20838;-92
2023/12/16 17:15:11;;;;;;;0.00;0.00;;;;;;;;;;4911063;29;20029;-93
2023/12/16 17:17:38;;;;;;;0.00;0.00;;;;;;;;;;4923232;29;20035;-93
2023/12/16 17:20:04;;;;;;;0.10;0.10;;;;;;;;;;4921015;29;20032;-92
2023/12/16 17:22:30;;;;;;;0.10;0.10;;;;;;;;;;4922716;29;20059;-93
2023/12/16 17:24:56;;;;;;;0.00;0.00;;;;;;;;;;4932827;29;20024;-93
2023/12/16 17:27:23;;;;;;;0.00;0.00;;;;;;;;;;4931059;29;20044;-94
2023/12/16 17:32:52;;;;;;;0.00;0.00;;;;;;;;;;4920126;29;20036;-93
2023/12/16 17:35:18;;;;;;;0.00;0.00;;;;;;;;;;4934690;29;20040;-93
2023/12/16 17:37:44;;;;;;;0.10;0.10;;;;;;;;;;4919848;29;20028;-93
2023/12/16 17:40:10;;;;;;;0.10;0.10;;;;;;;;;;4929455;29;20028;-92
2023/12/16 17:42:36;;;;;;;0.00;0.00;;;;;;;;;;4918121;29;20028;-92
2023/12/16 17:45:02;;;;;;;0.00;0.00;;;;;;;;;;4938116;29;20024;-93
2023/12/16 17:47:28;;;;;;;0.10;0.10;;;;;;;;;;4918767;29;20107;-92
2023/12/16 17:49:54;;;;;;;0.00;0.00;;;;;;;;;;4918591;29;20519;-92
2023/12/16 17:52:20;;;;;;;0.00;0.00;;;;;;;;;;4921884;29;20488;-92
2023/12/16 17:54:46;;;;;;;0.00;0.00;;;;;;;;;;4929239;29;20044;-92
2023/12/16 17:57:11;;;;;;;0.08;0.08;;;;;;;;;;4926612;29;20114;-93
2023/12/16 17:59:37;;;;;;;0.10;0.10;;;;;;;;;;4916715;29;20039;-92
2023/12/16 18:02:03;;;;;;;0.00;0.00;;;;;;;;;;4920444;29;20122;-93
2023/12/16 18:04:30;;;;;;;0.00;0.00;;;;;;;;;;4920557;29;20032;-93
2023/12/16 18:06:57;;;;;;;0.00;0.00;;;;;;;;;;4917823;29;20028;-91
2023/12/16 18:09:23;;;;;;;0.00;0.00;;;;;;;;;;4920763;29;20554;-91
2023/12/16 18:11:49;;;;;;;0.00;0.00;;;;;;;;;;4918874;29;20076;-92
2023/12/16 18:14:16;;;;;;;0.10;0.10;;;;;;;;;;4920776;29;20036;-92
2023/12/16 18:16:44;;;;;;;0.00;0.00;;;;;;;;;;4917935;29;20038;-92
2023/12/16 18:19:10;;;;;;;0.05;0.05;;;;;;;;;;4932424;28;20044;-95
2023/12/16 18:21:36;;;;;;;0.00;0.00;;;;;;;;;;4938653;28;20059;-95
2023/12/16 18:24:03;;;;;;;0.00;0.00;;;;;;;;;;4924917;29;20028;-94
2023/12/16 18:26:29;;;;;;;0.00;0.00;;;;;;;;;;4916098;29;21784;-92
2023/12/16 18:28:55;;;;;;;0.10;0.10;;;;;;;;;;4914812;29;20044;-92
2023/12/16 18:31:21;;;;;;;0.00;0.00;;;;;;;;;;4918770;29;20036;-92
2023/12/16 18:33:50;;;;;;;0.10;0.10;;;;;;;;;;4914748;29;20020;-92
2023/12/16 18:36:16;;;;;;;0.10;0.10;;;;;;;;;;4924000;29;20035;-90
2023/12/16 18:38:44;;;;;;;0.10;0.10;;;;;;;;;;4909137;29;20032;-91
2023/12/16 18:41:10;;;;;;;0.00;0.00;;;;;;;;;;4926552;29;20036;-93
2023/12/16 18:43:38;;;;;;;0.00;0.00;;;;;;;;;;4910709;29;20123;-93
2023/12/16 18:46:04;;;;;;;0.00;0.00;;;;;;;;;;4910505;29;20067;-93
2023/12/16 18:48:30;;;;;;;0.00;0.00;;;;;;;;;;4911436;29;20492;-94
2023/12/16 18:50:56;;;;;;;0.00;0.00;;;;;;;;;;4912439;29;20121;-91
2023/12/16 18:53:22;;;;;;;0.00;0.00;;;;;;;;;;4908632;29;20051;-92
2023/12/16 18:55:48;;;;;;;0.00;0.00;;;;;;;;;;4909203;29;20088;-91
2023/12/16 18:58:14;;;;;;;0.08;0.08;;;;;;;;;;4911171;29;20119;-93
2023/12/16 19:00:40;;;;;;;0.00;0.00;;;;;;;;;;4912547;29;20476;-93
2023/12/16 19:03:06;;;;;;;0.00;0.00;;;;;;;;;;4910989;29;20044;-93
2023/12/16 19:05:32;;;;;;;0.00;0.00;;;;;;;;;;4909086;29;20208;-93
2023/12/16 19:07:57;;;;;;;0.00;0.00;;;;;;;;;;4930361;29;20498;-94
2023/12/16 19:10:23;;;;;;;0.00;0.00;;;;;;;;;;4927235;29;20091;-93
2023/12/16 19:12:49;;;;;;;0.00;0.00;;;;;;;;;;4913325;29;20028;-93
2023/12/16 19:15:15;;;;;;;0.10;0.10;;;;;;;;;;4914024;29;20503;-93
2023/12/16 19:17:41;;;;;;;0.00;0.00;;;;;;;;;;4911999;29;20510;-93
2023/12/16 19:20:08;;;;;;;0.00;0.00;;;;;;;;;;4922497;29;20032;-92
2023/12/16 19:22:34;;;;;;;0.00;0.00;;;;;;;;;;4908939;29;20044;-90
2023/12/16 19:25:00;;;;;;;0.00;0.00;;;;;;;;;;4911444;29;20387;-91
2023/12/16 19:27:26;;;;;;;0.10;0.10;;;;;;;;;;4926479;29;20060;-94
2023/12/16 19:29:52;;;;;;;0.10;0.10;;;;;;;;;;4926731;29;20491;-93
2023/12/16 19:32:18;;;;;;;0.00;0.00;;;;;;;;;;4908499;29;20123;-92
2023/12/16 19:34:44;;;;;;;0.00;0.00;;;;;;;;;;4932604;29;20483;-94
2023/12/16 19:37:10;;;;;;;0.00;0.00;;;;;;;;;;4918117;29;20029;-93
2023/12/16 19:39:39;;;;;;;0.00;0.00;;;;;;;;;;4931709;29;20048;-91
2023/12/16 19:42:05;;;;;;;0.10;0.10;;;;;;;;;;4928684;29;20036;-91
2023/12/16 19:44:31;;;;;;;0.00;0.00;;;;;;;;;;4916471;29;20036;-91
2023/12/16 19:46:57;;;;;;;0.00;0.00;;;;;;;;;;4915133;29;20487;-93
2023/12/16 19:49:22;;;;;;;0.00;0.00;;;;;;;;;;4922537;29;20494;-94
2023/12/16 19:51:48;;;;;;;0.00;0.00;;;;;;;;;;4935898;29;20064;-93
2023/12/16 19:54:14;;;;;;;0.10;0.10;;;;;;;;;;4922279;29;20043;-92
2023/12/16 19:56:40;;;;;;;0.00;0.00;;;;;;;;;;4916253;29;20025;-92
2023/12/16 19:59:07;;;;;;;0.10;0.10;;;;;;;;;;4920517;29;20032;-91
2023/12/16 20:01:33;;;;;;;0.00;0.00;;;;;;;;;;4920772;29;20028;-92
2023/12/16 20:03:59;;;;;;;0.00;0.00;;;;;;;;;;4920401;29;20028;-92
2023/12/16 20:06:27;;;;;;;0.00;0.00;;;;;;;;;;4916163;29;20024;-92
2023/12/16 20:08:53;;;;;;;0.00;0.00;;;;;;;;;;4917677;29;20029;-91
2023/12/16 20:11:19;;;;;;;0.08;0.08;;;;;;;;;;4919003;29;20067;-91
2023/12/16 20:13:45;;;;;;;0.00;0.00;;;;;;;;;;4923081;29;20091;-93
2023/12/16 20:16:12;;;;;;;0.10;0.10;;;;;;;;;;4917714;29;20064;-91
2023/12/16 20:18:38;;;;;;;0.00;0.00;;;;;;;;;;4920614;29;20119;-93